Time;durP1;ratioP1;P1;durP2;ratioP2;P2;SDS_P1;SDS_P2;PMS_P1;PMS_P2;Temp;Humidity;BMP_temperature;BMP_pressure;BME280_temperature;BME280_humidity;BME280_pressure;Samples;Min_cycle;Max_cycle;Signal;HPM_P1;HPM_P2
2022/10/29 00:00:16;;;;;;;11.52;4.32;;;;;;;;;;1038861;28;20114;-82
2022/10/29 00:00:50;;;;;;;5.28;2.97;;;;;;;;;;1035076;28;20021;-82
2022/10/29 00:01:21;;;;;;;8.63;4.07;;;;;;;;;;1034836;28;20028;-81
2022/10/29 00:01:52;;;;;;;9.63;3.78;;;;;;;;;;1035263;28;20044;-81
2022/10/29 00:02:23;;;;;;;9.05;3.50;;;;;;;;;;1034568;28;20033;-82
2022/10/29 00:02:54;;;;;;;10.00;4.65;;;;;;;;;;1034646;28;20022;-81
2022/10/29 00:03:25;;;;;;;8.38;3.70;;;;;;;;;;1035330;28;20084;-81
2022/10/29 00:03:56;;;;;;;8.13;3.05;;;;;;;;;;1036504;28;20888;-82
2022/10/29 00:04:27;;;;;;;10.30;3.90;;;;;;;;;;1038846;28;20785;-81
2022/10/29 00:04:58;;;;;;;8.77;3.57;;;;;;;;;;1030877;28;20104;-82
2022/10/29 00:05:29;;;;;;;8.80;4.13;;;;;;;;;;1030467;28;20277;-81
2022/10/29 00:06:01;;;;;;;12.77;4.47;;;;;;;;;;1029931;28;20015;-81
2022/10/29 00:06:32;;;;;;;7.45;3.00;;;;;;;;;;1031268;28;20494;-81
2022/10/29 00:07:03;;;;;;;10.25;3.45;;;;;;;;;;1034381;28;20508;-81
2022/10/29 00:07:34;;;;;;;10.55;3.88;;;;;;;;;;1036157;28;20024;-81
2022/10/29 00:08:05;;;;;;;8.75;3.95;;;;;;;;;;1034664;28;20022;-81
2022/10/29 00:08:37;;;;;;;8.57;3.35;;;;;;;;;;1031431;28;20057;-81
2022/10/29 00:09:09;;;;;;;9.63;3.63;;;;;;;;;;1030412;28;20425;-81
2022/10/29 00:09:40;;;;;;;10.13;3.38;;;;;;;;;;1027073;28;20576;-81
2022/10/29 00:10:11;;;;;;;6.38;3.00;;;;;;;;;;1026921;28;20458;-81
2022/10/29 00:10:42;;;;;;;7.30;3.08;;;;;;;;;;1031644;28;20068;-81
2022/10/29 00:11:18;;;;;;;7.95;3.50;;;;;;;;;;1034945;28;20532;-80
2022/10/29 00:11:49;;;;;;;8.88;3.95;;;;;;;;;;1038849;28;20458;-81
2022/10/29 00:12:20;;;;;;;8.07;3.95;;;;;;;;;;1037787;28;20467;-81
2022/10/29 00:12:51;;;;;;;7.90;3.37;;;;;;;;;;1040506;28;20052;-81
2022/10/29 00:13:22;;;;;;;8.50;3.63;;;;;;;;;;1035124;28;20900;-81
2022/10/29 00:13:54;;;;;;;7.22;2.95;;;;;;;;;;1030649;28;20435;-81
2022/10/29 00:14:25;;;;;;;13.13;4.13;;;;;;;;;;1033930;28;20015;-81
2022/10/29 00:14:56;;;;;;;8.90;2.80;;;;;;;;;;1034772;28;20017;-81
2022/10/29 00:15:27;;;;;;;6.15;2.90;;;;;;;;;;1034425;28;20689;-81
2022/10/29 00:15:58;;;;;;;9.23;3.50;;;;;;;;;;1035323;28;20100;-81
2022/10/29 00:16:30;;;;;;;13.00;3.25;;;;;;;;;;1034583;28;20024;-82
2022/10/29 00:17:01;;;;;;;14.20;3.83;;;;;;;;;;1034806;28;20029;-81
2022/10/29 00:17:33;;;;;;;11.57;3.08;;;;;;;;;;1035032;28;20045;-80
2022/10/29 00:18:04;;;;;;;7.63;3.33;;;;;;;;;;1042438;28;20021;-81
2022/10/29 00:18:35;;;;;;;8.18;3.55;;;;;;;;;;1039241;28;20017;-81
2022/10/29 00:19:06;;;;;;;9.65;3.35;;;;;;;;;;1034520;28;20050;-81
2022/10/29 00:19:37;;;;;;;9.00;3.08;;;;;;;;;;1034202;28;20026;-81
2022/10/29 00:20:08;;;;;;;9.43;4.68;;;;;;;;;;1030439;28;20014;-81
2022/10/29 00:20:39;;;;;;;11.75;4.93;;;;;;;;;;1030701;28;20073;-81
2022/10/29 00:21:12;;;;;;;8.13;3.45;;;;;;;;;;1035474;28;20068;-81
2022/10/29 00:21:43;;;;;;;9.35;2.95;;;;;;;;;;1034889;28;20018;-81
2022/10/29 00:22:14;;;;;;;8.13;3.63;;;;;;;;;;1039440;28;20018;-81
2022/10/29 00:22:46;;;;;;;7.38;3.53;;;;;;;;;;1042642;28;20116;-82
2022/10/29 00:23:17;;;;;;;11.60;4.03;;;;;;;;;;1042837;28;20611;-82
2022/10/29 00:23:48;;;;;;;8.60;3.25;;;;;;;;;;1043142;28;19998;-82
2022/10/29 00:24:19;;;;;;;9.35;3.50;;;;;;;;;;1034741;28;20061;-81
2022/10/29 00:24:50;;;;;;;11.52;4.22;;;;;;;;;;1034628;28;20022;-81
2022/10/29 00:25:21;;;;;;;9.30;3.78;;;;;;;;;;1030741;28;20021;-82
2022/10/29 00:25:55;;;;;;;6.75;3.60;;;;;;;;;;1030394;28;20022;-82
2022/10/29 00:26:28;;;;;;;6.82;3.40;;;;;;;;;;1031130;28;20400;-81
2022/10/29 00:26:58;;;;;;;9.80;3.55;;;;;;;;;;1030490;28;20015;-82
2022/10/29 00:27:29;;;;;;;9.50;3.95;;;;;;;;;;1030612;28;20011;-82
2022/10/29 00:28:00;;;;;;;12.10;3.95;;;;;;;;;;1030310;28;20466;-83
2022/10/29 00:28:32;;;;;;;9.52;3.95;;;;;;;;;;1032999;28;20022;-82
2022/10/29 00:29:03;;;;;;;8.20;3.92;;;;;;;;;;1031238;28;20026;-82
2022/10/29 00:29:34;;;;;;;11.38;4.13;;;;;;;;;;1030476;28;20019;-82
2022/10/29 00:30:05;;;;;;;10.40;3.75;;;;;;;;;;1031978;28;20018;-82
2022/10/29 00:30:36;;;;;;;10.38;3.83;;;;;;;;;;1035068;28;20677;-82
2022/10/29 00:31:09;;;;;;;8.98;3.75;;;;;;;;;;1038825;28;20017;-83
2022/10/29 00:31:40;;;;;;;11.68;3.75;;;;;;;;;;1034947;28;20014;-83
2022/10/29 00:32:11;;;;;;;7.75;3.63;;;;;;;;;;1034021;28;20042;-83
2022/10/29 00:32:42;;;;;;;8.50;3.92;;;;;;;;;;1030680;28;20054;-83
2022/10/29 00:33:15;;;;;;;6.20;3.30;;;;;;;;;;1031091;28;20014;-83
2022/10/29 00:33:46;;;;;;;11.00;4.18;;;;;;;;;;1035466;28;20021;-83
2022/10/29 00:34:17;;;;;;;7.50;3.47;;;;;;;;;;1034704;28;20068;-83
2022/10/29 00:34:48;;;;;;;7.80;3.42;;;;;;;;;;1035164;28;20076;-83
2022/10/29 00:35:19;;;;;;;13.93;3.30;;;;;;;;;;1036410;28;20038;-83
2022/10/29 00:35:57;;;;;;;8.30;3.15;;;;;;;;;;1034538;28;20835;-83
2022/10/29 00:36:28;;;;;;;7.72;2.78;;;;;;;;;;1035299;28;20022;-82
2022/10/29 00:36:59;;;;;;;10.60;3.25;;;;;;;;;;1030230;28;20041;-83
2022/10/29 00:37:30;;;;;;;8.38;3.50;;;;;;;;;;1031816;28;20034;-83
2022/10/29 00:38:01;;;;;;;6.78;3.17;;;;;;;;;;1034950;28;20654;-83
2022/10/29 00:38:33;;;;;;;12.20;3.33;;;;;;;;;;1034181;28;20725;-83
2022/10/29 00:39:04;;;;;;;7.65;3.08;;;;;;;;;;1035324;28;20634;-82
2022/10/29 00:39:35;;;;;;;6.88;3.17;;;;;;;;;;1034631;28;20493;-84
2022/10/29 00:40:06;;;;;;;12.48;4.40;;;;;;;;;;1034658;28;20033;-83
2022/10/29 00:40:38;;;;;;;9.35;4.03;;;;;;;;;;1038167;28;20419;-83
2022/10/29 00:41:11;;;;;;;7.38;3.30;;;;;;;;;;1038754;28;20029;-83
2022/10/29 00:41:42;;;;;;;7.95;3.55;;;;;;;;;;1035418;28;20033;-84
2022/10/29 00:42:14;;;;;;;10.88;3.75;;;;;;;;;;1038100;28;20029;-83
2022/10/29 00:42:45;;;;;;;8.52;3.63;;;;;;;;;;1031194;28;20402;-83
2022/10/29 00:43:18;;;;;;;9.18;3.58;;;;;;;;;;1034815;28;20560;-82
2022/10/29 00:43:50;;;;;;;6.85;3.90;;;;;;;;;;1036302;28;20084;-82
2022/10/29 00:44:28;;;;;;;8.05;3.22;;;;;;;;;;1035443;28;20037;-82
2022/10/29 00:44:59;;;;;;;8.95;3.85;;;;;;;;;;1038574;28;20022;-83
2022/10/29 00:45:30;;;;;;;10.50;4.00;;;;;;;;;;1038286;28;20403;-83
2022/10/29 00:46:07;;;;;;;7.53;3.35;;;;;;;;;;1038370;28;20075;-83
2022/10/29 00:46:39;;;;;;;7.82;3.72;;;;;;;;;;1035198;28;20621;-83
2022/10/29 00:47:19;;;;;;;8.07;3.58;;;;;;;;;;1036186;28;20026;-83
2022/10/29 00:47:51;;;;;;;10.02;3.40;;;;;;;;;;1033588;28;20030;-83
2022/10/29 00:48:24;;;;;;;7.13;3.92;;;;;;;;;;1032328;28;20133;-83
2022/10/29 00:48:57;;;;;;;7.47;3.20;;;;;;;;;;1028713;28;20030;-83
2022/10/29 00:49:28;;;;;;;9.63;3.53;;;;;;;;;;1029035;28;20573;-83
2022/10/29 00:50:10;;;;;;;9.48;3.40;;;;;;;;;;1031299;28;20036;-83
2022/10/29 00:50:42;;;;;;;9.38;3.72;;;;;;;;;;1034941;28;20034;-83
2022/10/29 00:51:13;;;;;;;15.25;4.65;;;;;;;;;;1038705;28;20057;-83
2022/10/29 00:51:46;;;;;;;10.52;3.90;;;;;;;;;;1039489;28;20037;-83
2022/10/29 00:52:18;;;;;;;13.45;4.53;;;;;;;;;;1038470;28;20033;-84
2022/10/29 00:52:49;;;;;;;8.10;4.05;;;;;;;;;;1038707;28;20037;-83
2022/10/29 00:53:22;;;;;;;8.23;3.90;;;;;;;;;;1034542;28;20037;-82
2022/10/29 00:54:00;;;;;;;6.53;3.28;;;;;;;;;;1034662;28;20037;-82
2022/10/29 00:54:33;;;;;;;7.57;3.60;;;;;;;;;;1036833;28;20582;-84
2022/10/29 00:55:06;;;;;;;6.80;3.60;;;;;;;;;;1034499;28;20033;-82
2022/10/29 00:55:37;;;;;;;7.53;3.53;;;;;;;;;;1037280;28;20040;-82
2022/10/29 00:56:08;;;;;;;9.13;3.38;;;;;;;;;;1042677;28;20024;-82
2022/10/29 00:56:45;;;;;;;7.82;3.28;;;;;;;;;;1038894;28;20020;-82
2022/10/29 00:57:18;;;;;;;8.98;3.85;;;;;;;;;;1038941;28;20025;-82
2022/10/29 00:57:51;;;;;;;8.20;3.10;;;;;;;;;;1038570;28;20440;-83
2022/10/29 00:58:22;;;;;;;5.82;2.97;;;;;;;;;;1040255;28;20143;-82
2022/10/29 00:58:53;;;;;;;5.60;2.75;;;;;;;;;;1038755;28;20127;-82
2022/10/29 00:59:24;;;;;;;5.63;2.88;;;;;;;;;;1035883;28;20033;-82
2022/10/29 00:59:56;;;;;;;5.65;2.40;;;;;;;;;;1039104;28;20751;-82
2022/10/29 01:00:27;;;;;;;6.68;2.97;;;;;;;;;;1038685;28;20542;-83
2022/10/29 01:00:58;;;;;;;8.38;3.33;;;;;;;;;;1038618;28;20539;-82
2022/10/29 01:01:29;;;;;;;9.70;3.22;;;;;;;;;;1034140;28;20021;-82
2022/10/29 01:02:00;;;;;;;5.95;4.15;;;;;;;;;;1035457;28;20017;-82
2022/10/29 01:02:32;;;;;;;5.63;3.33;;;;;;;;;;1034634;28;20473;-82
2022/10/29 01:03:03;;;;;;;7.60;3.97;;;;;;;;;;1038471;28;20018;-83
2022/10/29 01:03:34;;;;;;;12.10;3.72;;;;;;;;;;1038854;28;20088;-83
2022/10/29 01:04:05;;;;;;;7.57;3.63;;;;;;;;;;1036673;28;20350;-82
2022/10/29 01:04:37;;;;;;;9.35;3.08;;;;;;;;;;1031497;28;20038;-83
2022/10/29 01:05:08;;;;;;;6.78;3.22;;;;;;;;;;1034718;28;20128;-83
2022/10/29 01:05:40;;;;;;;6.10;3.13;;;;;;;;;;1031726;28;20133;-83
2022/10/29 01:06:11;;;;;;;7.18;3.80;;;;;;;;;;1035685;28;20022;-83
2022/10/29 01:06:42;;;;;;;5.57;2.95;;;;;;;;;;1035253;28;20014;-83
2022/10/29 01:07:14;;;;;;;6.07;3.72;;;;;;;;;;1036341;28;20014;-83
2022/10/29 01:07:45;;;;;;;7.15;3.33;;;;;;;;;;1039317;28;20388;-83
2022/10/29 01:08:16;;;;;;;5.97;2.80;;;;;;;;;;1038921;28;20419;-84
2022/10/29 01:08:47;;;;;;;9.27;4.70;;;;;;;;;;1039013;28;20653;-83
2022/10/29 01:09:18;;;;;;;8.75;3.88;;;;;;;;;;1039343;28;20013;-82
2022/10/29 01:09:49;;;;;;;10.90;4.28;;;;;;;;;;1040265;28;20023;-82
2022/10/29 01:10:24;;;;;;;9.77;4.78;;;;;;;;;;1039526;28;20021;-82
2022/10/29 01:11:04;;;;;;;7.55;3.78;;;;;;;;;;1039147;28;20043;-82
2022/10/29 01:11:51;;;;;;;7.88;4.18;;;;;;;;;;1037516;28;20022;-83
2022/10/29 01:12:40;;;;;;;6.80;3.33;;;;;;;;;;1035998;28;20014;-82
2022/10/29 01:13:23;;;;;;;7.57;3.72;;;;;;;;;;1031847;28;20029;-82
2022/10/29 01:13:59;;;;;;;7.38;3.70;;;;;;;;;;1031515;28;20058;-82
2022/10/29 01:14:35;;;;;;;8.93;3.67;;;;;;;;;;1033576;28;20398;-82
2022/10/29 01:15:24;;;;;;;10.48;3.30;;;;;;;;;;1039455;28;20013;-83
2022/10/29 01:16:19;;;;;;;7.50;2.95;;;;;;;;;;1039215;28;20041;-83
2022/10/29 01:16:54;;;;;;;10.75;3.58;;;;;;;;;;1031384;28;20034;-82
2022/10/29 01:17:45;;;;;;;6.78;3.50;;;;;;;;;;1027619;28;20703;-82
2022/10/29 01:18:22;;;;;;;8.88;4.18;;;;;;;;;;1031304;28;20440;-83
2022/10/29 01:19:14;;;;;;;9.77;3.83;;;;;;;;;;1035402;28;20039;-83
2022/10/29 01:19:44;;;;;;;7.75;3.55;;;;;;;;;;1039229;28;20037;-82
2022/10/29 01:20:15;;;;;;;6.77;2.83;;;;;;;;;;1039575;28;20021;-83
2022/10/29 01:21:05;;;;;;;7.97;3.67;;;;;;;;;;1035012;28;20272;-83
2022/10/29 01:21:36;;;;;;;10.75;3.75;;;;;;;;;;1033761;28;20261;-83
2022/10/29 01:22:14;;;;;;;8.93;4.43;;;;;;;;;;1031210;28;20030;-82
2022/10/29 01:22:54;;;;;;;8.68;4.10;;;;;;;;;;1031430;28;20034;-83
2022/10/29 01:23:43;;;;;;;7.10;4.30;;;;;;;;;;1033140;28;20041;-83
2022/10/29 01:24:26;;;;;;;6.93;3.58;;;;;;;;;;1031187;28;20034;-83
2022/10/29 01:25:06;;;;;;;7.25;3.58;;;;;;;;;;1036505;28;20112;-83
2022/10/29 01:25:40;;;;;;;8.40;3.75;;;;;;;;;;1035278;28;20026;-84
2022/10/29 01:26:16;;;;;;;7.97;3.83;;;;;;;;;;1038515;28;20251;-84
2022/10/29 01:27:03;;;;;;;9.45;4.43;;;;;;;;;;1035051;28;20777;-83
2022/10/29 01:27:48;;;;;;;5.82;3.13;;;;;;;;;;1036169;28;20412;-83
2022/10/29 01:28:38;;;;;;;11.85;3.42;;;;;;;;;;1031296;28;20030;-83
2022/10/29 01:29:28;;;;;;;11.50;4.03;;;;;;;;;;1035618;28;20033;-83
2022/10/29 01:29:59;;;;;;;9.27;4.13;;;;;;;;;;1036582;28;20029;-83
2022/10/29 01:30:40;;;;;;;9.60;4.10;;;;;;;;;;1039548;28;20112;-83
2022/10/29 01:31:25;;;;;;;11.13;4.30;;;;;;;;;;1034982;28;20069;-83
2022/10/29 01:32:13;;;;;;;10.10;3.72;;;;;;;;;;1034806;28;20145;-83
2022/10/29 01:32:52;;;;;;;11.05;4.38;;;;;;;;;;1036253;28;20030;-83
2022/10/29 01:33:36;;;;;;;10.77;4.00;;;;;;;;;;1037112;28;20029;-82
2022/10/29 01:34:09;;;;;;;8.32;3.55;;;;;;;;;;1035065;28;20037;-82
2022/10/29 01:34:43;;;;;;;9.27;3.72;;;;;;;;;;1031323;28;20070;-82
2022/10/29 01:35:29;;;;;;;7.53;4.57;;;;;;;;;;1034559;28;20109;-82
2022/10/29 01:36:12;;;;;;;12.10;4.40;;;;;;;;;;1039350;28;20065;-82
2022/10/29 01:36:49;;;;;;;11.73;5.03;;;;;;;;;;1039280;28;20021;-82
2022/10/29 01:37:28;;;;;;;14.60;5.78;;;;;;;;;;1039142;28;20022;-82
2022/10/29 01:37:59;;;;;;;;;;;;;;;;;;1038009;28;20037;-84
2022/10/29 01:38:32;;;;;;;11.50;6.17;;;;;;;;;;1039207;28;20024;-84
2022/10/29 01:39:02;;;;;;;15.80;6.47;;;;;;;;;;1031691;28;20035;-82
2022/10/29 01:39:45;;;;;;;13.82;5.95;;;;;;;;;;1027730;28;20113;-82
2022/10/29 01:40:20;;;;;;;14.00;7.03;;;;;;;;;;1034020;28;20045;-83
2022/10/29 01:41:07;;;;;;;15.52;6.57;;;;;;;;;;1031234;28;20066;-83
2022/10/29 01:42:01;;;;;;;12.05;6.43;;;;;;;;;;1034540;28;20099;-82
2022/10/29 01:42:47;;;;;;;13.15;6.00;;;;;;;;;;1027007;28;20490;-83
2022/10/29 01:43:22;;;;;;;15.38;6.15;;;;;;;;;;1033372;28;20086;-83
2022/10/29 01:43:55;;;;;;;12.25;5.70;;;;;;;;;;1031602;28;20034;-82
2022/10/29 01:44:45;;;;;;;11.95;6.10;;;;;;;;;;1034399;28;20018;-82
2022/10/29 01:45:21;;;;;;;12.30;6.45;;;;;;;;;;1035382;28;20034;-82
2022/10/29 01:45:55;;;;;;;10.48;5.53;;;;;;;;;;1031002;28;20094;-83
2022/10/29 01:46:49;;;;;;;9.95;5.40;;;;;;;;;;1031071;28;20038;-83
2022/10/29 01:47:21;;;;;;;6.95;4.13;;;;;;;;;;1027564;28;20035;-82
2022/10/29 01:48:12;;;;;;;9.75;5.38;;;;;;;;;;1039596;28;20033;-83
2022/10/29 01:48:45;;;;;;;8.77;4.65;;;;;;;;;;1041247;28;20058;-83
2022/10/29 01:49:22;;;;;;;6.95;4.93;;;;;;;;;;1043439;28;20111;-82
2022/10/29 01:49:56;;;;;;;6.68;4.72;;;;;;;;;;1043425;28;20032;-82
2022/10/29 01:50:27;;;;;;;9.73;5.43;;;;;;;;;;1037809;28;20033;-83
2022/10/29 01:50:59;;;;;;;5.70;4.35;;;;;;;;;;1033722;28;20037;-83
2022/10/29 01:51:32;;;;;;;8.90;3.63;;;;;;;;;;1036088;28;20512;-82
2022/10/29 01:52:04;;;;;;;5.97;4.25;;;;;;;;;;1039624;28;20176;-82
2022/10/29 01:52:35;;;;;;;9.40;4.65;;;;;;;;;;1039182;28;20029;-82
2022/10/29 01:53:07;;;;;;;5.63;4.47;;;;;;;;;;1035565;28;20396;-82
2022/10/29 01:53:38;;;;;;;3.85;3.20;;;;;;;;;;1035318;28;20508;-82
2022/10/29 01:54:10;;;;;;;6.68;3.72;;;;;;;;;;1030890;28;20027;-83
2022/10/29 01:54:41;;;;;;;6.07;4.15;;;;;;;;;;1027802;28;20049;-82
2022/10/29 01:55:19;;;;;;;5.15;3.83;;;;;;;;;;1031112;28;20030;-82
2022/10/29 01:55:50;;;;;;;6.80;3.70;;;;;;;;;;1029057;28;20039;-82
2022/10/29 01:56:21;;;;;;;4.28;3.67;;;;;;;;;;1028143;28;20030;-83
2022/10/29 01:56:55;;;;;;;4.00;3.30;;;;;;;;;;1029978;28;20434;-82
2022/10/29 01:57:34;;;;;;;7.13;4.00;;;;;;;;;;1030949;28;20030;-83
2022/10/29 01:58:06;;;;;;;8.52;3.45;;;;;;;;;;1033339;28;20023;-83
2022/10/29 01:58:37;;;;;;;5.53;3.40;;;;;;;;;;1037002;28;20037;-83
2022/10/29 01:59:13;;;;;;;5.53;3.47;;;;;;;;;;1039256;28;20057;-83
2022/10/29 01:59:44;;;;;;;5.50;3.25;;;;;;;;;;1039259;28;20042;-83
2022/10/29 02:00:16;;;;;;;7.00;3.95;;;;;;;;;;1039343;28;20135;-83
2022/10/29 02:00:58;;;;;;;5.75;3.33;;;;;;;;;;1039772;28;20551;-83
2022/10/29 02:01:41;;;;;;;6.18;3.33;;;;;;;;;;1039131;28;20026;-82
2022/10/29 02:02:26;;;;;;;3.78;3.05;;;;;;;;;;1032291;28;20129;-83
2022/10/29 02:03:01;;;;;;;4.13;3.17;;;;;;;;;;1035421;28;20030;-82
2022/10/29 02:03:32;;;;;;;4.65;3.20;;;;;;;;;;1035785;28;20022;-82
2022/10/29 02:04:14;;;;;;;4.23;2.70;;;;;;;;;;1040692;28;20571;-83
2022/10/29 02:05:01;;;;;;;5.70;3.45;;;;;;;;;;1039144;28;20394;-83
2022/10/29 02:05:34;;;;;;;5.63;3.40;;;;;;;;;;1031711;28;20045;-83
2022/10/29 02:06:29;;;;;;;5.72;3.67;;;;;;;;;;1031637;28;20050;-82
2022/10/29 02:07:11;;;;;;;4.80;3.78;;;;;;;;;;1034929;28;20101;-83
2022/10/29 02:07:50;;;;;;;4.40;2.92;;;;;;;;;;1035027;28;20029;-83
2022/10/29 02:08:40;;;;;;;6.28;3.25;;;;;;;;;;1035812;28;20030;-82
2022/10/29 02:09:13;;;;;;;4.95;3.55;;;;;;;;;;1030845;28;20088;-83
2022/10/29 02:09:55;;;;;;;4.70;3.75;;;;;;;;;;1031029;28;20030;-83
2022/10/29 02:10:35;;;;;;;4.13;3.42;;;;;;;;;;1030797;28;20050;-83
2022/10/29 02:11:12;;;;;;;6.10;4.30;;;;;;;;;;1031582;28;20037;-83
2022/10/29 02:11:51;;;;;;;7.28;3.63;;;;;;;;;;1034892;28;20109;-82
2022/10/29 02:12:30;;;;;;;5.40;3.58;;;;;;;;;;1041933;28;20086;-83
2022/10/29 02:13:01;;;;;;;5.03;3.42;;;;;;;;;;1039228;28;20026;-83
2022/10/29 02:13:34;;;;;;;8.80;3.45;;;;;;;;;;1040111;28;20017;-83
2022/10/29 02:14:07;;;;;;;9.35;4.20;;;;;;;;;;1038913;28;20036;-83
2022/10/29 02:14:42;;;;;;;4.80;3.42;;;;;;;;;;1040269;28;20140;-82
2022/10/29 02:15:16;;;;;;;4.00;3.17;;;;;;;;;;1039184;28;20060;-82
2022/10/29 02:15:49;;;;;;;5.07;3.50;;;;;;;;;;1032788;28;20783;-82
2022/10/29 02:16:22;;;;;;;4.13;3.58;;;;;;;;;;1034012;28;20076;-83
2022/10/29 02:16:54;;;;;;;21.90;5.00;;;;;;;;;;1028425;28;20019;-82
2022/10/29 02:17:25;;;;;;;4.68;3.08;;;;;;;;;;1031588;28;20053;-82
2022/10/29 02:18:00;;;;;;;6.30;3.20;;;;;;;;;;1035232;28;20501;-83
2022/10/29 02:18:31;;;;;;;4.70;3.08;;;;;;;;;;1037282;28;20029;-82
2022/10/29 02:19:02;;;;;;;4.37;3.00;;;;;;;;;;1043549;28;20033;-82
2022/10/29 02:19:34;;;;;;;3.75;2.85;;;;;;;;;;1038110;28;20858;-83
2022/10/29 02:20:06;;;;;;;4.00;3.30;;;;;;;;;;1035456;28;20033;-83
2022/10/29 02:20:41;;;;;;;3.92;3.03;;;;;;;;;;1033265;28;20044;-83
2022/10/29 02:21:15;;;;;;;4.45;3.22;;;;;;;;;;1032722;28;20037;-82
2022/10/29 02:21:46;;;;;;;3.88;3.03;;;;;;;;;;1036403;28;20076;-82
2022/10/29 02:22:17;;;;;;;3.80;2.65;;;;;;;;;;1037517;28;20108;-82
2022/10/29 02:22:48;;;;;;;4.32;3.25;;;;;;;;;;1039026;28;20028;-81
2022/10/29 02:23:19;;;;;;;3.47;2.58;;;;;;;;;;1039294;28;20067;-82
2022/10/29 02:23:50;;;;;;;4.63;3.08;;;;;;;;;;1039597;28;20032;-82
2022/10/29 02:24:21;;;;;;;6.90;3.33;;;;;;;;;;1035058;28;20152;-82
2022/10/29 02:24:52;;;;;;;4.57;3.15;;;;;;;;;;1030972;28;20032;-82
2022/10/29 02:25:23;;;;;;;4.68;3.47;;;;;;;;;;1031175;28;20486;-82
2022/10/29 02:25:54;;;;;;;4.80;3.63;;;;;;;;;;1037534;28;20020;-82
2022/10/29 02:26:25;;;;;;;5.30;3.10;;;;;;;;;;1040275;28;20132;-82
2022/10/29 02:26:56;;;;;;;5.53;3.35;;;;;;;;;;1039097;28;20076;-81
2022/10/29 02:27:27;;;;;;;4.22;3.03;;;;;;;;;;1037310;28;20056;-82
2022/10/29 02:27:58;;;;;;;4.78;2.72;;;;;;;;;;1034817;28;20032;-82
2022/10/29 02:28:29;;;;;;;4.82;3.05;;;;;;;;;;1035291;28;20041;-82
2022/10/29 02:29:01;;;;;;;5.20;3.03;;;;;;;;;;1036480;28;20033;-81
2022/10/29 02:29:32;;;;;;;5.15;3.33;;;;;;;;;;1035409;28;20030;-81
2022/10/29 02:30:03;;;;;;;6.25;3.88;;;;;;;;;;1039010;28;20029;-82
2022/10/29 02:30:34;;;;;;;3.60;2.67;;;;;;;;;;1039252;28;20064;-82
2022/10/29 02:31:05;;;;;;;4.07;2.88;;;;;;;;;;1038710;28;20049;-82
2022/10/29 02:31:36;;;;;;;3.58;2.90;;;;;;;;;;1039833;28;20029;-82
2022/10/29 02:32:07;;;;;;;2.90;2.33;;;;;;;;;;1034791;28;20216;-82
2022/10/29 02:32:38;;;;;;;5.00;3.67;;;;;;;;;;1035235;28;20058;-82
2022/10/29 02:33:09;;;;;;;4.40;3.25;;;;;;;;;;1035575;28;20069;-81
2022/10/29 02:33:40;;;;;;;4.97;3.53;;;;;;;;;;1031297;28;20042;-81
2022/10/29 02:34:11;;;;;;;3.08;2.70;;;;;;;;;;1032754;28;20061;-82
2022/10/29 02:34:42;;;;;;;3.90;3.47;;;;;;;;;;1035294;28;20084;-83
2022/10/29 02:35:13;;;;;;;3.78;2.78;;;;;;;;;;1034834;28;20037;-82
2022/10/29 02:35:44;;;;;;;4.05;2.78;;;;;;;;;;1030992;28;20033;-82
2022/10/29 02:36:15;;;;;;;4.53;3.13;;;;;;;;;;1038995;28;20393;-83
2022/10/29 02:36:46;;;;;;;3.85;3.45;;;;;;;;;;1039939;28;20022;-83
2022/10/29 02:37:17;;;;;;;4.60;3.40;;;;;;;;;;1038848;28;20025;-82
2022/10/29 02:37:48;;;;;;;4.15;3.13;;;;;;;;;;1037914;28;20494;-84
2022/10/29 02:38:19;;;;;;;4.70;3.17;;;;;;;;;;1039177;28;20527;-83
2022/10/29 02:38:50;;;;;;;4.78;3.50;;;;;;;;;;1034571;28;20481;-82
2022/10/29 02:39:21;;;;;;;2.95;2.38;;;;;;;;;;1032519;28;20026;-82
2022/10/29 02:39:52;;;;;;;4.95;3.60;;;;;;;;;;1039194;28;20497;-82
2022/10/29 02:40:23;;;;;;;5.03;2.92;;;;;;;;;;1035067;28;20132;-83
2022/10/29 02:40:54;;;;;;;3.20;2.72;;;;;;;;;;1035137;28;20595;-83
2022/10/29 02:41:25;;;;;;;3.00;2.58;;;;;;;;;;1034762;28;20026;-83
2022/10/29 02:41:56;;;;;;;5.47;2.63;;;;;;;;;;1035727;28;20122;-83
2022/10/29 02:42:27;;;;;;;3.78;3.10;;;;;;;;;;1034966;28;20460;-83
2022/10/29 02:42:58;;;;;;;2.45;2.25;;;;;;;;;;1040439;28;20485;-83
2022/10/29 02:43:29;;;;;;;2.97;2.67;;;;;;;;;;1043158;28;20059;-83
2022/10/29 02:44:00;;;;;;;3.83;3.08;;;;;;;;;;1039063;28;20128;-83
2022/10/29 02:44:30;;;;;;;4.57;2.97;;;;;;;;;;1035433;28;20468;-82
2022/10/29 02:45:02;;;;;;;3.85;3.20;;;;;;;;;;1032464;28;20655;-83
2022/10/29 02:45:32;;;;;;;6.30;3.08;;;;;;;;;;1030441;28;20030;-83
2022/10/29 02:46:30;;;;;;;4.45;3.15;;;;;;;;;;1027044;28;20015;-83
2022/10/29 02:47:01;;;;;;;3.95;2.80;;;;;;;;;;1027962;28;20073;-83
2022/10/29 02:47:32;;;;;;;6.85;3.25;;;;;;;;;;1030831;28;20033;-82
2022/10/29 02:48:03;;;;;;;4.68;3.30;;;;;;;;;;1030449;28;20034;-83
2022/10/29 02:48:34;;;;;;;5.97;3.13;;;;;;;;;;1031323;28;20019;-83
2022/10/29 02:49:06;;;;;;;3.22;2.63;;;;;;;;;;1031006;28;20133;-82
2022/10/29 02:49:37;;;;;;;3.70;2.60;;;;;;;;;;1036041;28;20068;-83
2022/10/29 02:50:08;;;;;;;3.33;2.78;;;;;;;;;;1038823;28;20074;-82
2022/10/29 02:50:39;;;;;;;7.18;3.53;;;;;;;;;;1039598;28;20072;-83
2022/10/29 02:51:10;;;;;;;4.25;2.40;;;;;;;;;;1038802;28;20025;-83
2022/10/29 02:51:41;;;;;;;3.58;2.42;;;;;;;;;;1039246;28;20030;-83
2022/10/29 02:52:12;;;;;;;3.03;2.53;;;;;;;;;;1038480;28;20025;-83
2022/10/29 02:52:43;;;;;;;3.33;2.70;;;;;;;;;;1031318;28;20030;-83
2022/10/29 02:53:14;;;;;;;2.78;2.38;;;;;;;;;;1027928;28;20030;-83
2022/10/29 02:53:45;;;;;;;3.10;2.53;;;;;;;;;;1027016;28;20465;-83
2022/10/29 02:54:16;;;;;;;5.07;2.70;;;;;;;;;;1026955;28;20549;-83
2022/10/29 02:54:47;;;;;;;3.70;2.30;;;;;;;;;;1033777;28;20026;-83
2022/10/29 02:55:18;;;;;;;5.45;2.60;;;;;;;;;;1039145;28;20029;-83
2022/10/29 02:55:49;;;;;;;3.78;2.85;;;;;;;;;;1043162;28;20060;-83
2022/10/29 02:56:20;;;;;;;3.03;2.65;;;;;;;;;;1038650;28;20170;-83
2022/10/29 02:56:51;;;;;;;4.20;2.60;;;;;;;;;;1039463;28;20063;-83
2022/10/29 02:57:22;;;;;;;3.50;2.70;;;;;;;;;;1039468;28;20109;-83
2022/10/29 02:57:53;;;;;;;17.65;3.15;;;;;;;;;;1035011;28;20030;-83
2022/10/29 02:58:24;;;;;;;4.35;2.70;;;;;;;;;;1034477;28;20776;-83
2022/10/29 02:58:55;;;;;;;2.45;2.25;;;;;;;;;;1035047;28;20128;-83
2022/10/29 02:59:26;;;;;;;2.72;2.45;;;;;;;;;;1035277;28;20093;-84
2022/10/29 02:59:57;;;;;;;3.70;2.65;;;;;;;;;;1032631;28;20051;-83
2022/10/29 03:00:28;;;;;;;5.75;2.97;;;;;;;;;;1030811;28;20026;-83
2022/10/29 03:00:59;;;;;;;2.80;2.50;;;;;;;;;;1030944;28;20029;-83
2022/10/29 03:01:30;;;;;;;2.67;2.47;;;;;;;;;;1031045;28;20027;-83
2022/10/29 03:02:01;;;;;;;3.75;2.53;;;;;;;;;;1031703;28;20216;-83
2022/10/29 03:02:32;;;;;;;4.38;2.83;;;;;;;;;;1031361;28;20117;-83
2022/10/29 03:03:03;;;;;;;5.32;2.80;;;;;;;;;;1035089;28;20041;-82
2022/10/29 03:03:33;;;;;;;2.92;2.38;;;;;;;;;;1031412;28;20109;-83
2022/10/29 03:04:05;;;;;;;6.53;2.80;;;;;;;;;;1041861;28;20025;-82
2022/10/29 03:04:40;;;;;;;3.90;3.50;;;;;;;;;;1039778;28;20075;-82
2022/10/29 03:05:11;;;;;;;4.45;2.80;;;;;;;;;;1035406;28;20049;-82
2022/10/29 03:05:42;;;;;;;3.95;3.42;;;;;;;;;;1030737;28;20097;-82
2022/10/29 03:06:16;;;;;;;3.67;2.63;;;;;;;;;;1031504;28;20145;-82
2022/10/29 03:06:47;;;;;;;3.28;2.47;;;;;;;;;;1033944;28;20034;-82
2022/10/29 03:07:18;;;;;;;6.00;2.50;;;;;;;;;;1040505;28;20029;-82
2022/10/29 03:07:49;;;;;;;5.68;3.00;;;;;;;;;;1038877;28;20389;-83
2022/10/29 03:08:20;;;;;;;6.13;3.10;;;;;;;;;;1038985;28;20087;-82
2022/10/29 03:08:51;;;;;;;3.90;2.70;;;;;;;;;;1038627;28;20047;-83
2022/10/29 03:09:22;;;;;;;4.53;3.08;;;;;;;;;;1038955;28;20107;-82
2022/10/29 03:09:53;;;;;;;5.28;2.38;;;;;;;;;;1039644;28;20028;-82
2022/10/29 03:10:24;;;;;;;4.53;2.63;;;;;;;;;;1038828;28;20026;-82
2022/10/29 03:10:55;;;;;;;5.07;3.10;;;;;;;;;;1039030;28;20045;-82
2022/10/29 03:11:26;;;;;;;4.50;2.45;;;;;;;;;;1043080;28;20017;-83
2022/10/29 03:11:57;;;;;;;5.13;3.17;;;;;;;;;;1038889;28;20017;-83
2022/10/29 03:12:28;;;;;;;5.20;3.92;;;;;;;;;;1035413;28;20619;-82
2022/10/29 03:12:59;;;;;;;4.75;3.25;;;;;;;;;;1034841;28;20225;-83
2022/10/29 03:13:30;;;;;;;8.45;2.88;;;;;;;;;;1035188;28;20022;-83
2022/10/29 03:14:01;;;;;;;5.75;3.15;;;;;;;;;;1034796;28;20036;-83
2022/10/29 03:14:32;;;;;;;3.90;3.35;;;;;;;;;;1035072;28;20513;-82
2022/10/29 03:15:03;;;;;;;3.83;3.23;;;;;;;;;;1032691;28;20026;-83
2022/10/29 03:15:34;;;;;;;4.68;3.72;;;;;;;;;;1035094;28;21115;-82
2022/10/29 03:16:05;;;;;;;4.05;3.33;;;;;;;;;;1034398;28;20661;-83
2022/10/29 03:16:38;;;;;;;3.35;2.70;;;;;;;;;;1035284;28;20196;-83
2022/10/29 03:17:09;;;;;;;3.17;2.65;;;;;;;;;;1030594;28;20022;-83
2022/10/29 03:17:40;;;;;;;4.78;3.40;;;;;;;;;;1031028;28;20018;-83
2022/10/29 03:18:11;;;;;;;5.88;2.60;;;;;;;;;;1031388;28;20491;-83
2022/10/29 03:18:42;;;;;;;3.75;2.88;;;;;;;;;;1031097;28;20023;-83
2022/10/29 03:19:13;;;;;;;4.20;2.20;;;;;;;;;;1027523;28;20155;-83
2022/10/29 03:19:44;;;;;;;7.25;2.58;;;;;;;;;;1027080;28;20043;-83
2022/10/29 03:20:15;;;;;;;4.20;2.88;;;;;;;;;;1031636;28;20409;-83
2022/10/29 03:20:46;;;;;;;2.83;2.10;;;;;;;;;;1030975;28;20018;-83
2022/10/29 03:21:17;;;;;;;4.57;3.10;;;;;;;;;;1035047;28;20022;-83